createdAt,value
2022-07-29T00:00:01.249Z,4.5
2022-07-29T00:10:01.205Z,4.8
2022-07-29T00:15:02.223Z,5.0
2022-07-29T00:30:01.242Z,4.8
2022-07-29T00:35:02.172Z,4.5
2022-07-29T00:40:01.257Z,4.3
2022-07-29T00:50:01.183Z,4.4
2022-07-29T00:55:05.025Z,5.5
2022-07-29T01:00:01.186Z,6.0
2022-07-29T01:05:01.120Z,6.2
2022-07-29T01:10:01.252Z,6.8
2022-07-29T01:15:01.118Z,6.9
2022-07-29T01:20:01.182Z,6.2
2022-07-29T01:35:01.119Z,5.0
2022-07-29T01:40:01.127Z,5.1
2022-07-29T01:45:01.029Z,4.9
2022-07-29T01:50:01.107Z,5.1
2022-07-29T02:00:02.068Z,5.8
2022-07-29T02:05:01.080Z,6.3
2022-07-29T02:10:01.169Z,6.6
2022-07-29T02:15:01.038Z,6.5
2022-07-29T02:20:01.171Z,6.7
2022-07-29T02:25:01.092Z,6.6
2022-07-29T02:30:01.102Z,6.2
2022-07-29T02:35:01.029Z,6.3
2022-07-29T02:45:01.095Z,6.0
2022-07-29T02:50:01.156Z,5.5
2022-07-29T03:00:01.162Z,5.6
2022-07-29T03:05:01.149Z,5.9
2022-07-29T03:10:01.094Z,5.8
2022-07-29T03:15:01.030Z,5.9
2022-07-29T03:20:01.158Z,6.3
2022-07-29T03:30:01.162Z,6.4
2022-07-29T03:35:01.036Z,7.1
2022-07-29T03:45:01.165Z,7.0
2022-07-29T03:50:06.121Z,6.9
2022-07-29T03:55:01.035Z,6.7
2022-07-29T04:00:01.103Z,6.4
2022-07-29T04:05:01.040Z,7.3
2022-07-29T04:10:01.179Z,6.8
2022-07-29T04:15:01.034Z,6.8
2022-07-29T04:20:01.107Z,7.0
2022-07-29T04:25:03.887Z,6.8
2022-07-29T04:30:01.164Z,6.0
2022-07-29T04:35:01.048Z,6.4
2022-07-29T04:45:01.202Z,6.4
2022-07-29T04:50:01.097Z,6.8
2022-07-29T04:55:01.042Z,6.9
2022-07-29T05:00:01.091Z,6.5
2022-07-29T05:05:01.154Z,6.8
2022-07-29T05:10:01.229Z,6.6
2022-07-29T05:15:01.035Z,6.8
2022-07-29T05:25:04.357Z,7.2
2022-07-29T05:30:01.106Z,10.4
2022-07-29T05:35:01.037Z,10.5
2022-07-29T05:45:01.116Z,10.8
2022-07-29T05:50:01.171Z,11.2
2022-07-29T05:55:01.053Z,8.6
2022-07-29T06:00:01.104Z,9.0
2022-07-29T06:05:01.109Z,9.2
2022-07-29T06:10:01.112Z,8.8
2022-07-29T06:15:01.041Z,8.5
2022-07-29T06:20:01.172Z,7.6
2022-07-29T06:25:01.048Z,6.8
2022-07-29T06:30:01.172Z,6.0
2022-07-29T06:35:17.848Z,5.7
2022-07-29T06:40:01.027Z,5.6
2022-07-29T06:45:03.030Z,5.7
2022-07-29T06:55:01.113Z,6.1
2022-07-29T07:00:01.175Z,6.2
2022-07-29T07:05:01.039Z,6.3
2022-07-29T07:10:01.101Z,6.0
2022-07-29T07:15:01.036Z,6.2
2022-07-29T07:20:01.179Z,6.4
2022-07-29T07:25:01.079Z,6.3
2022-07-29T07:30:02.082Z,6.6
2022-07-29T07:35:01.128Z,7.3
2022-07-29T07:40:01.176Z,7.4
2022-07-29T07:45:16.776Z,7.0
2022-07-29T07:50:01.186Z,7.7
2022-07-29T07:55:01.053Z,7.2
2022-07-29T08:00:01.183Z,6.8
2022-07-29T08:05:01.053Z,6.6
2022-07-29T08:10:01.176Z,6.5
2022-07-29T08:15:02.137Z,6.0
2022-07-29T08:20:01.118Z,5.5
2022-07-29T08:25:01.125Z,5.3
2022-07-29T08:30:01.119Z,5.5
2022-07-29T08:35:01.050Z,6.2
2022-07-29T08:40:01.177Z,5.8
2022-07-29T08:45:01.057Z,6.0
2022-07-29T08:55:01.177Z,5.6
2022-07-29T09:00:04.926Z,4.9
2022-07-29T09:05:01.053Z,4.8
2022-07-29T09:10:01.177Z,4.6
2022-07-29T09:15:01.063Z,4.6
2022-07-29T09:30:06.125Z,4.3
2022-07-29T09:35:01.075Z,5.4
2022-07-29T09:55:01.028Z,4.0
2022-07-29T10:00:01.094Z,4.2
2022-07-29T10:05:00.996Z,4.1
2022-07-29T10:10:01.127Z,4.7
2022-07-29T10:15:00.946Z,4.6
2022-07-29T10:20:01.376Z,5.0
2022-07-29T10:25:01.016Z,5.1
2022-07-29T10:30:01.076Z,5.2
2022-07-29T10:35:01.020Z,4.6
2022-07-29T10:40:01.010Z,4.7
2022-07-29T10:55:00.937Z,4.6
2022-07-29T11:00:00.979Z,4.3
2022-07-29T11:15:01.507Z,5.0
2022-07-29T11:20:01.409Z,4.2
2022-07-29T11:35:00.938Z,3.2
2022-07-29T11:40:02.126Z,4.6
2022-07-29T11:45:04.272Z,4.5
2022-07-29T11:55:00.948Z,4.4
2022-07-29T12:00:04.841Z,4.8
2022-07-29T12:15:01.533Z,4.0
2022-07-29T12:20:01.570Z,5.2
2022-07-29T12:25:11.761Z,5.3
2022-07-29T12:30:01.461Z,5.0
2022-07-29T12:35:01.472Z,4.9
2022-07-29T12:40:01.644Z,5.2
2022-07-29T12:45:01.437Z,5.1
2022-07-29T12:50:02.485Z,5.2
2022-07-29T13:05:01.298Z,5.0
2022-07-29T13:10:01.243Z,4.6
2022-07-29T13:15:01.174Z,4.4
2022-07-29T13:20:01.329Z,4.3
2022-07-29T13:25:01.620Z,4.2
2022-07-29T13:30:01.284Z,4.0
2022-07-29T13:35:01.206Z,3.7
2022-07-29T13:40:06.512Z,3.5
2022-07-29T13:45:01.329Z,3.7
2022-07-29T13:50:01.342Z,3.4
2022-07-29T13:55:01.189Z,3.3
2022-07-29T14:00:01.310Z,3.3
2022-07-29T14:05:03.816Z,3.1
2022-07-29T14:10:01.253Z,2.3
2022-07-29T14:15:01.212Z,2.7
2022-07-29T14:20:01.353Z,2.6
2022-07-29T14:25:02.300Z,2.4
2022-07-29T14:30:01.204Z,2.5
2022-07-29T14:45:01.204Z,2.4
2022-07-29T14:50:01.258Z,2.7
2022-07-29T15:00:01.248Z,2.6
2022-07-29T15:05:06.198Z,3.2
2022-07-29T15:15:01.254Z,3.1
2022-07-29T15:20:01.189Z,3.0
2022-07-29T15:25:01.134Z,3.2
2022-07-29T15:30:01.197Z,3.2
2022-07-29T15:35:06.134Z,3.4
2022-07-29T15:45:01.255Z,4.2
2022-07-29T15:50:01.195Z,4.6
2022-07-29T16:00:01.201Z,4.8
2022-07-29T16:05:01.125Z,4.5
2022-07-29T16:10:01.226Z,4.2
2022-07-29T16:15:02.986Z,4.0
2022-07-29T16:25:01.195Z,4.1
2022-07-29T16:40:01.278Z,3.8
2022-07-29T16:45:01.154Z,3.8
2022-07-29T16:50:01.256Z,4.4
2022-07-29T16:55:01.180Z,4.2
2022-07-29T17:00:01.181Z,4.6
2022-07-29T17:05:01.118Z,4.8
2022-07-29T17:10:03.926Z,5.2
2022-07-29T17:15:01.122Z,5.1
2022-07-29T17:25:01.179Z,4.8
2022-07-29T17:30:01.194Z,4.6
2022-07-29T17:35:01.220Z,4.9
2022-07-29T17:40:01.237Z,4.4
2022-07-29T17:45:01.117Z,4.4
2022-07-29T17:50:01.246Z,4.7
2022-07-29T17:55:01.145Z,5.1
2022-07-29T18:00:01.271Z,4.7
2022-07-29T18:05:01.173Z,4.5
2022-07-29T18:15:01.205Z,4.4
2022-07-29T18:20:01.189Z,3.7
2022-07-29T18:25:01.121Z,3.9
2022-07-29T18:35:01.313Z,4.9
2022-07-29T18:40:01.401Z,5.1
2022-07-29T18:45:01.143Z,5.3
2022-07-29T18:50:01.212Z,5.8
2022-07-29T18:55:01.153Z,6.1
2022-07-29T19:00:01.270Z,5.6
2022-07-29T19:10:07.314Z,5.2
2022-07-29T19:15:01.163Z,5.3
2022-07-29T19:20:01.316Z,5.0
2022-07-29T19:25:01.221Z,4.8
2022-07-29T19:30:01.270Z,4.6
2022-07-29T19:40:01.230Z,4.8
2022-07-29T19:55:06.925Z,5.4
2022-07-29T20:00:01.190Z,5.4
2022-07-29T20:15:01.184Z,5.2
2022-07-29T20:20:01.186Z,5.8
2022-07-29T20:30:01.188Z,6.1
2022-07-29T20:35:01.118Z,6.4
2022-07-29T20:40:01.315Z,6.2
2022-07-29T20:45:03.416Z,6.3
2022-07-29T20:55:01.215Z,6.8
2022-07-29T21:00:01.208Z,7.0
2022-07-29T21:05:06.124Z,7.5
2022-07-29T21:25:01.189Z,8.0
2022-07-29T21:30:01.529Z,7.5
2022-07-29T21:35:01.108Z,7.3
2022-07-29T21:45:01.190Z,7.4
2022-07-29T21:50:01.175Z,7.2
2022-07-29T21:55:02.126Z,7.6
2022-07-29T22:00:03.113Z,7.4
2022-07-29T22:10:01.226Z,7.3
2022-07-29T22:15:01.095Z,7.3
2022-07-29T22:20:01.229Z,7.0
2022-07-29T22:30:01.176Z,6.9
2022-07-29T22:35:01.142Z,6.8
2022-07-29T22:40:01.279Z,7.4
2022-07-29T22:45:01.345Z,7.4
2022-07-29T22:50:01.217Z,7.6
2022-07-29T22:55:01.149Z,8.0
2022-07-29T23:00:01.208Z,8.2
2022-07-29T23:05:01.145Z,7.4
2022-07-29T23:10:01.270Z,6.8
2022-07-29T23:15:01.160Z,6.7
2022-07-29T23:20:01.324Z,6.6
2022-07-29T23:30:01.236Z,6.8
2022-07-29T23:35:01.108Z,7.6
2022-07-29T23:40:07.867Z,7.8
2022-07-29T23:45:01.109Z,7.5
2022-07-29T23:50:01.171Z,6.8
2022-07-29T23:55:36.303Z,6.9
